Time;durP1;ratioP1;P1;durP2;ratioP2;P2;SDS_P1;SDS_P2;PMS_P1;PMS_P2;Temp;Humidity;BMP_temperature;BMP_pressure;BME280_temperature;BME280_humidity;BME280_pressure;Samples;Min_cycle;Max_cycle;Signal;HPM_P1;HPM_P2
2022/02/10 00:04:00;;;;;;;7.75;4.63;;;;;;;5.58;68.46;99566.94;2617522;54;20049;-64
2022/02/10 00:17:36;;;;;;;8.05;5.05;;;;;;;5.90;67.32;99563.94;2618182;54;20031;-64
2022/02/10 00:20:19;;;;;;;8.55;5.10;;;;;;;5.97;67.07;99549.31;2617932;54;20046;-64
2022/02/10 00:23:21;;;;;;;7.38;5.00;;;;;;;5.99;66.64;99557.84;2618683;54;20034;-64
2022/02/10 00:34:18;;;;;;;9.27;4.93;;;;;;;5.99;66.06;99555.22;2618161;54;20019;-64
2022/02/10 00:36:57;;;;;;;8.02;5.00;;;;;;;6.02;65.83;99551.50;2618756;54;20039;-65
2022/02/10 00:39:56;;;;;;;8.07;5.22;;;;;;;6.01;65.98;99545.44;2617977;47;20027;-63
2022/02/10 00:42:29;;;;;;;9.55;5.82;;;;;;;5.92;66.50;99548.94;2618486;54;20035;-64
2022/02/10 00:44:58;;;;;;;11.98;5.47;;;;;;;5.85;66.14;99546.00;2619133;54;20030;-63
2022/02/10 00:47:31;;;;;;;8.75;6.13;;;;;;;5.78;66.42;99539.69;2619276;54;20038;-65
2022/02/10 00:50:05;;;;;;;10.25;5.75;;;;;;;5.77;66.41;99538.03;2620348;54;20029;-66
2022/02/10 00:52:40;;;;;;;9.18;5.68;;;;;;;5.66;66.33;99535.56;2620560;54;20039;-63
2022/02/10 00:55:13;;;;;;;7.90;5.85;;;;;;;5.52;66.15;99536.03;2619344;54;20022;-64
2022/02/10 00:57:45;;;;;;;9.30;5.93;;;;;;;5.36;67.10;99541.88;2619421;54;20043;-65
2022/02/10 01:11:42;;;;;;;16.27;5.47;;;;;;;5.17;67.90;99529.63;2621923;54;20045;-65
2022/02/10 01:14:36;;;;;;;9.30;5.22;;;;;;;5.13;67.49;99534.31;2622823;31;20562;-65
2022/02/10 01:30:45;;;;;;;8.23;5.65;;;;;;;5.12;68.36;99506.44;2617818;47;20042;-63
2022/02/10 01:33:14;;;;;;;9.20;4.78;;;;;;;5.19;68.37;99501.47;2619271;54;20053;-63
2022/02/10 01:35:44;;;;;;;7.97;5.30;;;;;;;5.24;68.03;99509.75;2618697;54;20051;-63
2022/02/10 01:38:13;;;;;;;9.75;5.20;;;;;;;5.27;67.67;99506.84;2619395;54;20058;-62
2022/02/10 01:41:12;;;;;;;9.07;4.90;;;;;;;5.26;67.70;99510.41;2619228;54;20054;-63
2022/02/10 02:05:32;;;;;;;9.70;4.75;;;;;;;5.33;67.16;99482.66;2624622;54;20049;-63
2022/02/10 02:08:03;;;;;;;11.60;4.50;;;;;;;5.27;67.14;99492.91;2624833;54;20062;-63
2022/02/10 02:10:33;;;;;;;10.40;5.05;;;;;;;5.17;67.55;99487.69;2625299;54;20065;-64
2022/02/10 02:13:03;;;;;;;10.35;5.45;;;;;;;5.08;67.23;99491.16;2623919;54;20042;-63
2022/02/10 02:15:33;;;;;;;10.43;5.60;;;;;;;4.88;67.69;99483.31;2619237;54;20077;-63
2022/02/10 02:18:05;;;;;;;8.32;4.55;;;;;;;4.74;68.38;99483.75;2619244;54;20101;-62
2022/02/10 02:20:35;;;;;;;7.90;4.72;;;;;;;4.65;68.45;99487.16;2618954;54;20034;-63
2022/02/10 02:23:07;;;;;;;16.13;5.68;;;;;;;4.63;68.25;99483.88;2618536;54;20077;-63
2022/02/10 02:25:37;;;;;;;10.32;5.55;;;;;;;4.53;69.08;99489.13;2618775;54;20054;-63
2022/02/10 02:28:09;;;;;;;6.63;5.07;;;;;;;4.51;68.61;99488.41;2618349;47;20049;-63
2022/02/10 02:30:42;;;;;;;10.18;6.20;;;;;;;4.44;69.10;99489.91;2619259;39;20406;-63
2022/02/10 02:33:46;;;;;;;9.20;5.20;;;;;;;4.40;69.12;99489.38;2618799;54;20037;-63
2022/02/10 02:39:22;;;;;;;9.85;4.97;;;;;;;4.26;69.05;99495.00;2617968;54;20034;-63
2022/02/10 03:06:24;;;;;;;6.75;4.97;;;;;;;3.87;70.21;99452.22;2618251;54;20023;-63
2022/02/10 03:08:57;;;;;;;7.63;5.65;;;;;;;3.83;70.37;99449.03;2618109;54;20058;-64
2022/02/10 03:11:29;;;;;;;6.68;4.70;;;;;;;3.78;70.62;99446.00;2618158;54;20050;-63
2022/02/10 03:14:04;;;;;;;10.88;5.68;;;;;;;3.81;70.82;99445.75;2618066;54;20065;-63
2022/02/10 03:17:13;;;;;;;11.63;5.50;;;;;;;3.93;70.91;99449.09;2618522;54;20053;-63
2022/02/10 03:19:57;;;;;;;8.00;4.32;;;;;;;4.00;70.82;99444.97;2618070;54;20077;-63
2022/02/10 03:22:53;;;;;;;;;;;;;;;4.10;70.81;99439.75;2618416;54;20076;-64
2022/02/10 04:03:46;;;;;;;12.32;5.80;;;;;;;5.21;70.57;99413.84;2619711;54;20019;-64
2022/02/10 04:06:37;;;;;;;9.65;5.45;;;;;;;5.22;70.67;99420.78;2620737;47;20043;-63
2022/02/10 04:09:39;;;;;;;8.95;5.50;;;;;;;5.26;70.98;99423.91;2621021;54;20058;-64
2022/02/10 04:12:38;;;;;;;9.88;5.03;;;;;;;5.28;70.61;99421.97;2619729;54;20588;-64
2022/02/10 04:15:18;;;;;;;8.00;5.32;;;;;;;5.25;70.64;99419.63;2619188;54;20033;-62
2022/02/10 04:18:18;;;;;;;9.10;4.80;;;;;;;5.30;71.09;99420.03;2619513;54;20027;-64
2022/02/10 04:21:00;;;;;;;8.88;5.82;;;;;;;5.28;70.99;99424.59;2618790;54;20577;-63
2022/02/10 04:23:47;;;;;;;8.63;5.82;;;;;;;5.27;70.75;99420.34;2619772;54;20022;-63
2022/02/10 04:26:27;;;;;;;10.90;5.97;;;;;;;5.29;70.67;99412.31;2619356;47;20545;-64
2022/02/10 04:57:03;;;;;;;12.32;5.75;;;;;;;5.36;71.42;99377.53;2621456;54;20042;-64
2022/02/10 04:59:46;;;;;;;10.38;5.70;;;;;;;5.42;71.58;99368.25;2619701;54;20556;-63
2022/02/10 05:08:21;;;;;;;12.07;6.47;;;;;;;5.53;71.81;99354.94;2619799;39;20429;-63
2022/02/10 05:22:12;;;;;;;13.38;6.60;;;;;;;5.59;71.56;99353.50;2623778;54;20549;-64
2022/02/10 05:31:24;;;;;;;12.45;6.80;;;;;;;5.62;71.97;99346.19;2624440;54;20030;-62
2022/02/10 05:35:50;;;;;;;14.15;6.45;;;;;;;5.70;71.93;99338.41;2622869;54;20061;-62
2022/02/10 05:38:26;;;;;;;8.00;5.30;;;;;;;5.72;71.55;99336.47;2621869;54;20064;-64
2022/02/10 05:43:50;;;;;;;12.38;6.25;;;;;;;5.79;72.03;99341.09;2623665;54;20033;-63
2022/02/10 05:46:24;;;;;;;11.23;6.38;;;;;;;5.85;71.39;99336.09;2624518;54;20577;-62
2022/02/10 05:54:30;;;;;;;13.85;7.10;;;;;;;5.96;71.97;99335.09;2624741;39;20442;-64
2022/02/10 05:57:15;;;;;;;11.52;6.30;;;;;;;6.03;71.95;99330.03;2624063;54;20550;-67
2022/02/10 06:39:08;;;;;;;13.75;6.88;;;;;;;6.61;69.81;99355.78;2626504;54;20042;-63
2022/02/10 06:47:18;;;;;;;9.68;6.20;;;;;;;6.66;70.15;99354.34;2625289;47;20042;-63
2022/02/10 06:50:06;;;;;;;20.10;7.70;;;;;;;6.66;70.40;99349.09;2626053;54;20034;-63
2022/02/10 06:52:43;;;;;;;13.98;6.63;;;;;;;6.68;69.79;99348.94;2627270;39;20406;-64
2022/02/10 06:55:25;;;;;;;14.23;6.72;;;;;;;6.69;70.07;99351.44;2625298;54;20023;-64
2022/02/10 06:58:17;;;;;;;12.05;6.30;;;;;;;6.70;69.95;99353.06;2626301;54;20058;-65
2022/02/10 07:06:29;;;;;;;;;;;;;;;6.71;69.83;99359.16;2625307;39;20433;-65
2022/02/10 07:09:24;;;;;;;9.68;6.25;;;;;;;6.69;70.15;99350.56;2622016;54;19946;-65
2022/02/10 07:12:14;;;;;;;13.45;6.18;;;;;;;6.74;69.72;99358.84;2622956;54;20107;-65
2022/02/10 07:47:58;;;;;;;12.85;7.38;;;;;;;7.03;69.36;99387.44;2624189;54;20050;-64
2022/02/10 07:53:45;;;;;;;13.90;7.60;;;;;;;7.09;69.09;99388.59;2622949;51;20065;-65
2022/02/10 07:59:38;;;;;;;13.30;6.95;;;;;;;7.13;68.87;99392.56;2623153;54;20034;-64
2022/02/10 08:56:46;;;;;;;15.77;8.50;;;;;;;7.25;70.16;99424.69;2622428;39;20202;-64
2022/02/10 08:59:48;;;;;;;12.52;7.03;;;;;;;7.30;70.09;99431.13;2622720;54;20031;-64
2022/02/10 09:02:38;;;;;;;12.38;6.93;;;;;;;7.29;69.97;99436.53;2622701;54;20030;-66
2022/02/10 09:05:20;;;;;;;12.15;7.78;;;;;;;7.20;70.24;99431.25;2622933;39;20430;-66
2022/02/10 09:08:29;;;;;;;16.52;8.85;;;;;;;7.17;70.65;99428.91;2623214;54;20041;-65
2022/02/10 09:11:29;;;;;;;15.52;7.28;;;;;;;7.18;70.55;99438.47;2624133;54;20057;-64
2022/02/10 09:58:26;;;;;;;14.80;9.38;;;;;;;7.13;72.53;99490.69;2621734;47;20031;-65
2022/02/10 10:01:21;;;;;;;12.05;6.95;;;;;;;7.21;72.21;99497.81;2622101;54;20513;-67
2022/02/10 10:04:01;;;;;;;12.75;7.93;;;;;;;7.15;72.46;99495.81;2624041;54;20019;-64
2022/02/10 10:09:49;;;;;;;13.57;8.65;;;;;;;7.20;72.94;99494.34;2624089;54;20550;-65
2022/02/10 10:15:22;;;;;;;11.23;7.95;;;;;;;7.26;72.55;99506.03;2624781;54;20529;-64
2022/02/10 10:21:11;;;;;;;12.70;7.93;;;;;;;7.16;73.05;99519.31;2623242;54;20085;-68
2022/02/10 10:24:09;;;;;;;10.50;7.25;;;;;;;7.16;72.62;99513.22;2623122;47;20034;-63
2022/02/10 10:26:58;;;;;;;10.90;6.55;;;;;;;7.15;73.03;99515.03;2623464;54;20030;-64
2022/02/10 10:51:40;;;;;;;9.30;7.32;;;;;;;6.98;74.63;99512.41;2622513;54;20034;-65
2022/02/10 10:54:18;;;;;;;12.75;9.35;;;;;;;7.05;74.34;99510.84;2622811;54;20030;-65
2022/02/10 10:56:55;;;;;;;11.15;8.90;;;;;;;7.10;74.31;99508.56;2623356;54;20034;-66
2022/02/10 10:59:53;;;;;;;13.65;8.20;;;;;;;7.19;74.01;99503.22;2622414;47;20049;-64
2022/02/10 11:39:16;;;;;;;12.82;8.10;;;;;;;7.16;73.95;99477.22;2618640;54;20577;-63
2022/02/10 11:42:38;;;;;;;8.85;7.10;;;;;;;7.12;74.71;99482.97;2619140;54;20043;-63
2022/02/10 12:38:12;;;;;;;8.65;6.75;;;;;;;7.26;73.86;99489.44;2619358;54;20042;-63
2022/02/10 13:48:42;;;;;;;19.55;10.05;;;;;;;7.17;73.82;99470.97;2619350;54;20034;-63
2022/02/10 14:13:10;;;;;;;11.48;7.30;;;;;;;7.28;72.39;99466.47;2618073;54;20029;-63
2022/02/10 14:18:26;;;;;;;14.75;9.00;;;;;;;7.31;71.85;99466.16;2622035;54;20069;-63
2022/02/10 14:21:06;;;;;;;18.17;10.23;;;;;;;7.27;72.07;99470.09;2621335;54;20518;-65
2022/02/10 14:29:05;;;;;;;16.70;9.80;;;;;;;7.42;71.50;99469.31;2621349;54;20034;-64
2022/02/10 14:31:35;;;;;;;16.83;10.13;;;;;;;7.41;70.90;99470.31;2621638;54;20085;-63
2022/02/10 14:34:04;;;;;;;15.68;9.82;;;;;;;7.36;71.08;99464.69;2621292;54;20026;-64
2022/02/10 14:36:40;;;;;;;21.83;11.77;;;;;;;7.29;71.15;99461.03;2618451;54;20041;-62
2022/02/10 14:39:27;;;;;;;26.55;11.48;;;;;;;7.24;71.00;99476.47;2618616;54;20057;-62
2022/02/10 15:53:21;;;;;;;21.67;13.57;;;;;;;6.76;73.87;99471.66;2618566;54;20030;-63
2022/02/10 15:56:09;;;;;;;19.27;12.93;;;;;;;6.78;73.52;99481.06;2617382;47;20073;-64
2022/02/10 16:17:39;;;;;;;20.95;14.15;;;;;;;6.63;74.10;99453.66;2620001;54;20039;-63
2022/02/10 16:20:17;;;;;;;20.15;14.68;;;;;;;6.62;74.47;99452.03;2618436;54;20039;-63
2022/02/10 16:22:59;;;;;;;18.90;13.90;;;;;;;6.63;73.88;99459.75;2618516;54;20047;-63
2022/02/10 16:25:31;;;;;;;21.10;14.65;;;;;;;6.71;74.24;99451.09;2618267;54;20034;-63
2022/02/10 16:28:30;;;;;;;19.77;13.02;;;;;;;6.76;74.43;99456.72;2619228;31;20526;-63
2022/02/10 16:31:01;;;;;;;20.35;13.50;;;;;;;6.74;73.50;99453.44;2620610;54;20027;-63
2022/02/10 16:33:55;;;;;;;20.80;14.80;;;;;;;6.73;73.88;99457.03;2622546;39;20317;-63
2022/02/10 16:36:45;;;;;;;16.55;12.57;;;;;;;6.66;73.73;99467.31;2622759;54;20023;-63
2022/02/10 16:39:35;;;;;;;17.88;13.70;;;;;;;6.68;74.50;99456.66;2618933;54;20038;-63
2022/02/10 16:42:25;;;;;;;16.20;12.57;;;;;;;6.67;73.78;99452.38;2618704;54;20050;-64
2022/02/10 16:45:14;;;;;;;20.20;14.82;;;;;;;6.60;73.51;99459.22;2618680;54;20034;-64
2022/02/10 16:47:44;;;;;;;19.73;14.00;;;;;;;6.60;74.01;99448.72;2618779;54;20089;-63
2022/02/10 16:50:37;;;;;;;19.98;15.07;;;;;;;6.58;73.60;99448.88;2619169;46;20065;-62
2022/02/10 16:53:28;;;;;;;16.33;11.40;;;;;;;6.58;73.51;99446.25;2619071;54;20026;-63
2022/02/10 16:56:21;;;;;;;17.80;12.43;;;;;;;6.59;73.54;99458.41;2618963;54;20031;-64
2022/02/10 16:59:26;;;;;;;13.07;9.85;;;;;;;6.60;73.38;99454.78;2618558;47;20030;-63
2022/02/10 17:02:43;;;;;;;11.43;9.18;;;;;;;6.58;73.31;99454.13;2618926;54;20033;-64
2022/02/10 17:17:58;;;;;;;11.82;9.32;;;;;;;6.31;72.84;99443.69;2618059;54;20038;-67
2022/02/10 17:20:41;;;;;;;16.85;11.65;;;;;;;6.32;73.56;99454.03;2617847;39;20433;-67
2022/02/10 18:21:09;;;;;;;17.52;12.45;;;;;;;6.29;73.62;99456.97;2618253;46;20034;-63
2022/02/10 18:24:00;;;;;;;18.55;12.20;;;;;;;6.32;73.95;99447.97;2619043;54;20026;-63
2022/02/10 18:26:54;;;;;;;19.95;12.88;;;;;;;6.30;73.56;99453.38;2619081;54;20073;-64
2022/02/10 18:29:47;;;;;;;18.50;12.82;;;;;;;6.29;73.90;99443.84;2619201;54;20464;-64
2022/02/10 19:01:33;;;;;;;15.68;12.05;;;;;;;6.33;73.20;99432.06;2618562;54;20081;-64
2022/02/10 19:06:21;;;;;;;21.05;14.52;;;;;;;6.27;73.23;99434.47;2617385;47;20034;-63
2022/02/10 19:09:00;;;;;;;29.67;18.27;;;;;;;6.23;73.54;99433.09;2618412;39;20474;-63
2022/02/10 19:11:33;;;;;;;21.77;15.00;;;;;;;6.25;73.90;99434.63;2618710;54;20038;-64
2022/02/10 19:14:05;;;;;;;18.98;13.18;;;;;;;6.23;73.69;99436.56;2619253;39;20441;-64
2022/02/10 19:16:34;;;;;;;19.83;13.65;;;;;;;6.25;73.42;99439.88;2617970;47;20039;-64
2022/02/10 19:19:05;;;;;;;15.95;12.27;;;;;;;6.30;73.90;99444.66;2618884;54;20034;-66
2022/02/10 19:21:34;;;;;;;19.45;12.98;;;;;;;6.34;73.37;99444.22;2618902;54;20034;-63
2022/02/10 19:24:04;;;;;;;19.17;13.05;;;;;;;6.34;73.38;99435.50;2618868;54;20035;-63
2022/02/10 19:26:38;;;;;;;19.70;13.55;;;;;;;6.34;73.51;99441.59;2619635;54;20030;-65
2022/02/10 19:29:08;;;;;;;22.10;13.93;;;;;;;6.35;73.12;99442.41;2620319;54;20042;-64
2022/02/10 19:31:42;;;;;;;20.10;13.30;;;;;;;6.39;73.35;99436.72;2619804;54;20034;-63
2022/02/10 19:34:12;;;;;;;16.60;11.57;;;;;;;6.41;73.32;99432.16;2619596;54;20085;-64
2022/02/10 19:37:01;;;;;;;19.83;13.02;;;;;;;6.41;73.25;99426.06;2621307;54;20054;-64
2022/02/10 19:39:32;;;;;;;17.38;12.30;;;;;;;6.49;72.91;99431.41;2624536;54;20045;-65
2022/02/10 19:42:05;;;;;;;19.33;11.52;;;;;;;6.51;72.82;99424.19;2623696;54;20027;-65
2022/02/10 19:44:37;;;;;;;21.30;12.55;;;;;;;6.51;72.39;99423.34;2623344;54;20034;-64
2022/02/10 19:47:07;;;;;;;18.92;11.88;;;;;;;6.45;72.38;99414.28;2622073;54;20566;-65
2022/02/10 19:49:39;;;;;;;17.98;12.27;;;;;;;6.43;72.55;99411.78;2622944;54;20070;-64
2022/02/10 19:52:09;;;;;;;17.60;11.48;;;;;;;6.40;72.28;99412.09;2622110;47;20039;-63
2022/02/10 19:54:46;;;;;;;21.67;12.38;;;;;;;6.43;72.25;99418.84;2622579;54;20027;-64
2022/02/10 19:57:23;;;;;;;17.20;11.10;;;;;;;6.36;72.20;99418.63;2622325;54;20038;-64
2022/02/10 19:59:57;;;;;;;17.85;11.93;;;;;;;6.37;72.18;99406.34;2620228;47;20034;-64
2022/02/10 20:02:26;;;;;;;18.55;12.88;;;;;;;6.40;72.28;99403.38;2618503;54;20030;-63
2022/02/10 20:04:57;;;;;;;22.80;14.40;;;;;;;6.42;72.09;99409.34;2618787;54;20045;-64
2022/02/10 20:07:26;;;;;;;28.52;17.52;;;;;;;6.46;71.98;99402.81;2619406;54;20030;-63
2022/02/10 20:09:56;;;;;;;18.15;12.38;;;;;;;6.49;71.76;99414.78;2618592;54;20535;-63
2022/02/10 20:12:29;;;;;;;16.33;10.35;;;;;;;6.47;71.97;99414.94;2618637;31;20529;-63
2022/02/10 20:14:58;;;;;;;16.48;10.52;;;;;;;6.46;72.13;99413.31;2618447;54;20030;-64
2022/02/10 20:17:28;;;;;;;16.73;10.90;;;;;;;6.45;71.79;99409.84;2618806;54;20030;-64
2022/02/10 20:19:58;;;;;;;15.75;10.63;;;;;;;6.43;71.67;99410.97;2619107;54;20157;-66
2022/02/10 20:22:33;;;;;;;16.33;10.45;;;;;;;6.48;71.56;99408.72;2619072;54;20033;-63
2022/02/10 20:25:23;;;;;;;20.08;11.48;;;;;;;6.45;71.51;99407.22;2618921;54;20031;-64
2022/02/10 20:27:55;;;;;;;19.00;12.25;;;;;;;6.45;71.63;99412.47;2618959;54;20550;-65
2022/02/10 20:30:25;;;;;;;13.73;9.68;;;;;;;6.51;71.92;99405.78;2619542;54;20047;-65
2022/02/10 20:32:54;;;;;;;15.77;10.23;;;;;;;6.51;71.42;99403.16;2618926;54;20061;-63
2022/02/10 20:35:24;;;;;;;15.00;9.63;;;;;;;6.51;71.60;99404.97;2619232;39;20426;-64
2022/02/10 20:37:59;;;;;;;13.85;9.13;;;;;;;6.53;71.25;99400.38;2618291;47;20038;-65
2022/02/10 20:40:30;;;;;;;16.50;9.70;;;;;;;6.51;71.28;99407.59;2619016;54;20035;-65
2022/02/10 20:43:07;;;;;;;17.88;9.57;;;;;;;6.50;71.41;99403.31;2618997;54;20529;-66
2022/02/10 20:45:37;;;;;;;14.18;9.27;;;;;;;6.48;70.95;99395.56;2621211;39;20354;-64
2022/02/10 20:48:09;;;;;;;13.10;9.02;;;;;;;6.44;71.05;99394.22;2620183;54;20038;-63
2022/02/10 20:50:39;;;;;;;15.02;9.52;;;;;;;6.43;71.17;99395.22;2621523;54;20058;-63
2022/02/10 20:53:08;;;;;;;14.00;9.40;;;;;;;6.42;71.24;99390.94;2620403;54;20065;-64
2022/02/10 20:55:38;;;;;;;14.93;8.82;;;;;;;6.39;70.97;99389.44;2620169;54;20541;-64
2022/02/10 20:58:10;;;;;;;16.98;9.40;;;;;;;6.44;71.43;99384.53;2620574;54;20077;-64
2022/02/10 21:00:40;;;;;;;14.43;9.93;;;;;;;6.45;70.99;99393.28;2621321;54;20039;-64
2022/02/10 21:03:10;;;;;;;13.43;9.82;;;;;;;6.41;70.95;99390.13;2623667;46;20122;-63
2022/02/10 21:05:42;;;;;;;14.52;9.63;;;;;;;6.45;70.95;99378.34;2621340;54;20030;-63
2022/02/10 21:08:16;;;;;;;14.57;9.10;;;;;;;6.50;70.56;99380.50;2621236;54;20035;-64
2022/02/10 21:10:45;;;;;;;;;;;;;;;6.48;70.73;99366.69;2622710;39;20439;-64
2022/02/10 21:13:17;;;;;;;13.60;9.18;;;;;;;6.51;70.97;99370.81;2620413;54;19938;-63
2022/02/10 21:15:47;;;;;;;13.73;9.70;;;;;;;6.50;70.64;99367.38;2619518;54;20037;-65
2022/02/10 21:18:19;;;;;;;17.23;9.40;;;;;;;6.52;70.71;99370.66;2619605;47;20031;-64
2022/02/10 21:20:50;;;;;;;15.82;10.40;;;;;;;6.52;70.15;99365.41;2619413;54;20042;-65
2022/02/10 21:23:25;;;;;;;13.70;9.50;;;;;;;6.53;70.19;99364.44;2619510;54;20034;-64
2022/02/10 21:25:56;;;;;;;16.02;10.23;;;;;;;6.53;70.12;99367.06;2618942;54;20034;-63
2022/02/10 21:28:32;;;;;;;17.55;10.57;;;;;;;6.55;70.27;99366.91;2618676;54;20042;-64
2022/02/10 21:31:05;;;;;;;17.45;11.20;;;;;;;6.56;70.29;99358.03;2618753;54;20062;-64
2022/02/10 21:33:50;;;;;;;15.70;10.20;;;;;;;6.56;70.15;99361.50;2619264;39;20539;-65
2022/02/10 21:36:45;;;;;;;15.73;10.02;;;;;;;6.56;69.96;99364.13;2618005;51;20026;-66
2022/02/10 21:47:58;;;;;;;15.55;9.52;;;;;;;6.52;70.17;99347.00;2618783;54;20053;-63
2022/02/10 22:10:00;;;;;;;13.23;9.88;;;;;;;6.57;71.36;99347.41;2618592;54;20034;-65
2022/02/10 22:18:32;;;;;;;15.90;10.85;;;;;;;6.59;71.28;99357.75;2618855;54;20030;-64
2022/02/10 22:21:04;;;;;;;18.55;11.30;;;;;;;6.62;71.28;99357.44;2619033;54;20046;-65
2022/02/10 22:23:37;;;;;;;15.02;10.30;;;;;;;6.55;71.72;99356.41;2619230;54;20042;-63
2022/02/10 22:26:08;;;;;;;15.95;9.70;;;;;;;6.45;71.42;99362.59;2618560;47;20034;-64
2022/02/10 22:28:48;;;;;;;17.27;9.70;;;;;;;6.46;71.45;99355.53;2620513;54;20041;-64
2022/02/10 22:31:26;;;;;;;14.95;9.80;;;;;;;6.40;71.72;99361.38;2619589;54;20069;-64
2022/02/10 22:34:16;;;;;;;17.23;10.02;;;;;;;6.36;71.79;99358.22;2619378;39;20395;-65
2022/02/10 22:36:53;;;;;;;12.50;9.40;;;;;;;6.40;72.25;99356.94;2618471;54;20039;-64
2022/02/10 22:39:22;;;;;;;17.35;11.45;;;;;;;6.34;72.30;99352.31;2618606;54;20591;-65
2022/02/10 22:41:52;;;;;;;13.20;9.48;;;;;;;6.37;72.33;99353.81;2618618;54;20038;-63
2022/02/10 22:44:21;;;;;;;15.13;10.10;;;;;;;6.36;72.82;99362.66;2618204;54;20059;-63
2022/02/10 22:46:51;;;;;;;13.07;9.07;;;;;;;6.36;72.77;99367.91;2618891;39;20426;-65
2022/02/10 22:49:24;;;;;;;13.10;8.77;;;;;;;6.33;72.73;99369.03;2618408;54;20038;-64
2022/02/10 22:51:53;;;;;;;15.02;8.85;;;;;;;6.26;72.44;99361.94;2618619;54;20060;-64
2022/02/10 22:54:23;;;;;;;15.15;8.43;;;;;;;6.27;72.82;99363.56;2618188;54;20039;-65
2022/02/10 22:56:53;;;;;;;16.40;9.57;;;;;;;6.26;72.94;99365.38;2619269;54;20038;-64
2022/02/10 22:59:24;;;;;;;16.92;9.27;;;;;;;6.24;73.08;99362.06;2618840;54;20041;-63
2022/02/10 23:01:55;;;;;;;16.10;8.85;;;;;;;6.21;72.86;99362.38;2601939;54;20030;-66
2022/02/10 23:04:27;;;;;;;15.57;9.50;;;;;;;6.24;73.02;99361.22;2617626;54;20061;-66
2022/02/10 23:07:01;;;;;;;13.73;8.75;;;;;;;6.25;73.14;99362.91;2617759;54;20033;-66
2022/02/10 23:09:38;;;;;;;16.20;9.52;;;;;;;6.23;73.14;99364.84;2617793;54;20022;-67
2022/02/10 23:12:09;;;;;;;16.27;8.68;;;;;;;6.23;73.56;99360.41;2617027;51;20101;-66
2022/02/10 23:14:39;;;;;;;15.45;9.80;;;;;;;6.26;73.12;99364.53;2617428;54;20023;-66
2022/02/10 23:17:08;;;;;;;15.18;9.20;;;;;;;6.25;73.65;99362.91;2618034;54;20039;-67
2022/02/10 23:19:41;;;;;;;14.80;9.27;;;;;;;6.27;73.74;99366.19;2617154;54;20034;-65
2022/02/10 23:22:10;;;;;;;14.48;9.93;;;;;;;6.30;73.67;99364.09;2617647;54;20030;-66
2022/02/10 23:24:40;;;;;;;19.02;11.63;;;;;;;6.25;73.73;99365.53;2617465;54;20038;-66
2022/02/10 23:27:10;;;;;;;19.42;11.75;;;;;;;6.27;73.76;99363.56;2617033;47;20125;-66
2022/02/10 23:29:40;;;;;;;17.05;10.57;;;;;;;6.22;73.67;99356.16;2617615;54;20046;-67
2022/02/10 23:32:11;;;;;;;15.93;10.15;;;;;;;6.22;73.79;99361.41;2617543;54;20022;-66
2022/02/10 23:34:43;;;;;;;17.38;10.02;;;;;;;6.24;73.97;99364.69;2617330;54;20049;-67
2022/02/10 23:37:11;;;;;;;16.15;11.48;;;;;;;6.20;74.24;99358.94;2617609;54;20081;-66
2022/02/10 23:39:45;;;;;;;16.73;11.43;;;;;;;6.14;74.35;99358.69;2616960;47;20027;-68
2022/02/10 23:42:27;;;;;;;19.95;12.13;;;;;;;6.10;74.43;99365.22;2617778;54;20023;-69
2022/02/10 23:45:05;;;;;;;18.05;11.30;;;;;;;6.05;74.58;99359.59;2618673;54;20061;-67
2022/02/10 23:47:34;;;;;;;17.83;11.45;;;;;;;6.05;74.94;99364.84;2618630;54;20046;-66
2022/02/10 23:50:11;;;;;;;18.70;11.13;;;;;;;6.04;74.71;99366.66;2619039;54;20101;-67
2022/02/10 23:52:41;;;;;;;21.08;11.27;;;;;;;6.07;74.74;99362.88;2619847;54;20041;-67
2022/02/10 23:55:18;;;;;;;17.35;11.02;;;;;;;6.05;74.81;99363.06;2619356;54;20038;-67
2022/02/10 23:57:57;;;;;;;15.13;11.25;;;;;;;6.00;74.84;99356.59;2619265;54;20038;-67
